Winslow, NE (68072)

7:59 PM CST on February 08, 2016 (GMT -0600)
Fremont Municipal | | Change Station
CLOSE
Current Station
Airport
Location: Fremont,
Elevation: 1204 ft
Nearby Weather Stations

Elev 1204 ft 41.45 °N, 96.52 °W | Updated 4 minutes ago

Mostly Cloudy
Mostly Cloudy
30 °F
Feels Like 20 °F
N
13
Wind Variable Wind from NNW
Gusts 20 mph

Today
High -- | Low -- °F
--% Chance of Precip.
Yesterday
High -- | Low -- °F
Precip. -- in
Pressure 30.11 in
Visibility 10.0 miles
Clouds Clear
Windchill 20 °F
Dew Point 19 °F
Humidity 65%
Rainfall 0.00 in
Snow Depth Not available.
7:30 AM 5:50 PM
New Moon, 0% visible
METAR KFET 090155Z AUTO 33011G17KT 10SM CLR M01/M07 A3011 RMK AO2 T10131072
Pressure 30.11 in
Visibility 10.0 miles
Clouds Clear
Windchill 20 °F
Dew Point 19 °F
Humidity 65%
Rainfall 0.00 in
Snow Depth Not available.
7:30 AM 5:50 PM
New Moon, 0% visible
METAR KFET 090155Z AUTO 33011G17KT 10SM CLR M01/M07 A3011 RMK AO2 T10131072

10-Day Weather Forecast

Almanac

Astronomy

Feb. 08, 2016 Rise Set
Actual Time
Civil Twilight
Nautical Twilight
Astronomical Twilight
Moon
Length of Visible Light
Length of Day
Tomorrow will be .
, % of the Moon is Illuminated

Today's Extremes

State Highs State Lows

Community

WunderPhotos

Upload Photos

1,891,527 photos uploaded!

WunderBlog® & News

Nearby

Air Quality

  Air Quality AQ Index Pollutant
Not available.

Snow Depth

Station Depth Elevation

Earthquake Activity

City Distance Mag. Time & Date
Minimum magnitude displayed is 2.5.

Coastal Water Temperatures

Place Temperature

Stations

Nearby Weather Stations

Station Location Temp. Windchill Dew Point Humidity Wind Precip. Elev Updated Type
                   

Watches & Warnings

There are currently no watches in effect.